createdAt,value
2022-12-18T00:00:19.063Z,9.45
2022-12-18T00:01:25.729Z,8.15
2022-12-18T00:02:28.102Z,8.83
2022-12-18T00:03:31.596Z,8.48
2022-12-18T00:04:34.955Z,9.05
2022-12-18T00:05:37.347Z,9.35
2022-12-18T00:06:40.779Z,9.60
2022-12-18T00:07:43.977Z,8.40
2022-12-18T00:08:47.793Z,9.52
2022-12-18T00:09:50.033Z,9.18
2022-12-18T00:10:53.433Z,9.82
2022-12-18T00:11:56.376Z,8.82
2022-12-18T00:13:00.724Z,10.57
2022-12-18T00:14:03.784Z,8.60
2022-12-18T00:15:07.784Z,8.70
2022-12-18T00:16:11.617Z,8.10
2022-12-18T00:17:16.614Z,7.85
2022-12-18T00:18:20.632Z,9.55
2022-12-18T00:19:24.415Z,9.10
2022-12-18T00:20:26.873Z,8.40
2022-12-18T00:21:31.735Z,9.07
2022-12-18T00:22:34.293Z,9.25
2022-12-18T00:23:40.023Z,8.37
2022-12-18T00:24:43.732Z,8.07
2022-12-18T00:25:45.960Z,7.25
2022-12-18T00:26:49.133Z,8.43
2022-12-18T00:27:51.383Z,9.38
2022-12-18T00:28:55.039Z,8.52
2022-12-18T00:29:57.259Z,8.65
2022-12-18T00:31:04.557Z,8.30
2022-12-18T00:32:06.814Z,8.98
2022-12-18T00:33:11.913Z,8.50
2022-12-18T00:34:14.797Z,9.53
2022-12-18T00:35:18.568Z,8.43
2022-12-18T00:36:23.256Z,8.68
2022-12-18T00:37:26.491Z,8.02
2022-12-18T00:38:28.910Z,8.75
2022-12-18T00:39:32.147Z,7.30
2022-12-18T00:40:34.587Z,8.43
2022-12-18T00:41:55.347Z,7.53
2022-12-18T00:42:57.570Z,7.05
2022-12-18T00:44:00.920Z,6.80
2022-12-18T00:45:07.635Z,7.07
2022-12-18T00:46:14.135Z,6.70
2022-12-18T00:47:16.503Z,8.00
2022-12-18T00:48:21.271Z,7.90
2022-12-18T00:49:23.731Z,8.38
2022-12-18T00:50:27.570Z,8.50
2022-12-18T00:51:29.854Z,7.53
2022-12-18T00:52:33.162Z,8.20
2022-12-18T00:53:35.710Z,7.97
2022-12-18T00:54:39.162Z,7.95
2022-12-18T00:55:42.143Z,7.97
2022-12-18T00:56:49.048Z,6.88
2022-12-18T00:57:53.105Z,8.00
2022-12-18T00:58:56.578Z,7.65
2022-12-18T00:59:59.900Z,7.93
2022-12-18T01:01:02.107Z,6.97
2022-12-18T01:02:05.504Z,7.13
2022-12-18T01:03:07.777Z,6.80
2022-12-18T01:04:12.800Z,7.40
2022-12-18T01:05:15.771Z,6.80
2022-12-18T01:06:19.484Z,7.50
2022-12-18T01:07:21.699Z,6.72
2022-12-18T01:08:25.245Z,7.45
2022-12-18T01:09:27.545Z,7.32
2022-12-18T01:10:30.981Z,7.95
2022-12-18T01:11:33.365Z,6.95
2022-12-18T01:12:36.770Z,7.57
2022-12-18T01:13:39.530Z,7.15
2022-12-18T01:14:43.032Z,7.22
2022-12-18T01:15:49.670Z,8.05
2022-12-18T01:16:53.104Z,6.83
2022-12-18T01:17:55.393Z,8.07
2022-12-18T01:18:58.804Z,7.75
2022-12-18T01:20:02.586Z,6.60
2022-12-18T01:21:09.317Z,7.03
2022-12-18T01:22:11.524Z,6.90
2022-12-18T01:23:14.934Z,7.25
2022-12-18T01:24:17.175Z,7.45
2022-12-18T01:25:20.515Z,6.85
2022-12-18T01:26:23.403Z,6.97
2022-12-18T01:27:26.652Z,7.30
2022-12-18T01:28:28.992Z,6.65
2022-12-18T01:29:32.439Z,6.63
2022-12-18T01:30:34.831Z,7.18
2022-12-18T01:31:38.255Z,5.90
2022-12-18T01:32:41.142Z,6.75
2022-12-18T01:33:44.452Z,7.07
2022-12-18T01:34:46.891Z,7.00
2022-12-18T01:35:51.651Z,6.47
2022-12-18T01:36:53.974Z,6.55
2022-12-18T01:37:57.498Z,6.67
2022-12-18T01:39:01.484Z,7.43
2022-12-18T01:40:05.279Z,6.20
2022-12-18T01:41:08.254Z,6.82
2022-12-18T01:42:14.246Z,6.25
2022-12-18T01:43:16.479Z,6.15
2022-12-18T01:45:02.487Z,6.82
2022-12-18T01:46:04.880Z,7.05
2022-12-18T01:47:08.182Z,6.50
2022-12-18T01:48:10.884Z,6.40
2022-12-18T01:49:14.245Z,6.40
2022-12-18T01:50:20.600Z,6.72
2022-12-18T01:51:25.777Z,6.28
2022-12-18T01:52:32.069Z,6.72
2022-12-18T01:53:35.745Z,7.15
2022-12-18T01:54:38.124Z,7.10
2022-12-18T01:55:47.805Z,6.40
2022-12-18T01:56:50.139Z,6.82
2022-12-18T01:57:56.192Z,6.20
2022-12-18T01:59:03.495Z,6.45
2022-12-18T02:00:10.343Z,6.53
2022-12-18T02:01:12.957Z,6.72
2022-12-18T02:02:18.149Z,6.60
2022-12-18T02:03:20.575Z,7.53
2022-12-18T02:04:25.155Z,6.30
2022-12-18T02:05:43.156Z,6.00
2022-12-18T02:06:49.433Z,6.35
2022-12-18T02:08:04.659Z,6.50
2022-12-18T02:09:15.220Z,6.80
2022-12-18T02:10:26.185Z,7.30
2022-12-18T02:11:40.939Z,6.87
2022-12-18T02:12:48.701Z,6.05
2022-12-18T02:14:01.507Z,6.90
2022-12-18T02:15:12.119Z,6.32
2022-12-18T02:16:22.475Z,6.38
2022-12-18T02:17:34.729Z,5.80
2022-12-18T02:18:41.021Z,7.40
2022-12-18T02:19:59.706Z,5.85
2022-12-18T02:21:10.608Z,6.57
2022-12-18T02:22:26.560Z,6.75
2022-12-18T02:23:42.775Z,6.40
2022-12-18T02:25:01.119Z,6.30
2022-12-18T02:26:11.223Z,6.20
2022-12-18T02:27:15.583Z,6.90
2022-12-18T02:28:21.183Z,5.47
2022-12-18T02:29:29.503Z,5.15
2022-12-18T02:30:35.070Z,5.07
2022-12-18T02:31:44.686Z,5.80
2022-12-18T02:32:52.268Z,6.07
2022-12-18T02:33:58.672Z,6.07
2022-12-18T02:35:03.360Z,5.70
2022-12-18T02:36:08.658Z,5.70
2022-12-18T02:37:15.014Z,5.22
2022-12-18T02:38:20.241Z,5.40
2022-12-18T02:39:25.171Z,5.00
2022-12-18T02:40:30.885Z,5.50
2022-12-18T02:41:37.242Z,4.63
2022-12-18T02:42:40.773Z,4.80
2022-12-18T02:43:48.797Z,4.97
2022-12-18T02:44:53.875Z,5.00
2022-12-18T02:45:58.481Z,4.80
2022-12-18T02:47:01.967Z,4.90
2022-12-18T02:48:04.685Z,4.65
2022-12-18T02:49:19.954Z,4.97
2022-12-18T02:50:32.339Z,4.30
2022-12-18T02:51:42.905Z,4.40
2022-12-18T02:52:57.358Z,4.63
2022-12-18T02:54:07.833Z,4.78
2022-12-18T02:55:22.360Z,5.05
2022-12-18T02:56:31.733Z,4.53
2022-12-18T02:57:45.273Z,4.87
2022-12-18T02:58:54.687Z,4.80
2022-12-18T03:00:03.853Z,5.18
2022-12-18T03:01:15.229Z,4.65
2022-12-18T03:02:26.459Z,4.90
2022-12-18T03:03:33.886Z,4.47
2022-12-18T03:04:42.628Z,4.53
2022-12-18T03:05:52.187Z,4.88
2022-12-18T03:06:58.536Z,4.72
2022-12-18T03:08:04.748Z,4.55
2022-12-18T03:09:14.356Z,4.73
2022-12-18T03:10:25.297Z,3.88
2022-12-18T03:11:51.103Z,4.70
2022-12-18T03:13:02.443Z,4.32
2022-12-18T03:14:08.155Z,4.20
2022-12-18T03:15:17.766Z,4.03
2022-12-18T03:16:25.581Z,4.50
2022-12-18T03:17:32.644Z,4.07
2022-12-18T03:18:39.657Z,4.03
2022-12-18T03:19:45.266Z,4.03
2022-12-18T03:20:51.373Z,3.90
2022-12-18T03:21:57.972Z,3.50
2022-12-18T03:23:08.903Z,4.13
2022-12-18T03:24:13.435Z,3.60
2022-12-18T03:25:18.817Z,3.58
2022-12-18T03:26:25.697Z,3.25
2022-12-18T03:27:30.416Z,3.70
2022-12-18T03:28:40.711Z,4.40
2022-12-18T03:29:48.797Z,3.97
2022-12-18T03:30:57.852Z,3.38
2022-12-18T03:32:05.806Z,3.23
2022-12-18T03:33:13.250Z,3.88
2022-12-18T03:34:18.401Z,3.40
2022-12-18T03:35:25.120Z,3.63
2022-12-18T03:36:28.537Z,3.28
2022-12-18T03:37:33.492Z,3.30
2022-12-18T03:38:35.984Z,3.25
2022-12-18T03:39:39.848Z,3.63
2022-12-18T03:40:54.258Z,3.50
2022-12-18T03:42:07.268Z,2.97
2022-12-18T03:43:14.644Z,3.17
2022-12-18T03:44:30.386Z,2.90
2022-12-18T03:45:37.375Z,3.15
2022-12-18T03:46:49.295Z,3.22
2022-12-18T03:48:01.247Z,3.53
2022-12-18T03:49:12.323Z,2.95
2022-12-18T03:50:21.056Z,3.05
2022-12-18T03:51:30.671Z,3.97
2022-12-18T03:52:39.594Z,2.90
2022-12-18T03:53:50.219Z,3.10
2022-12-18T03:54:56.497Z,3.00
2022-12-18T03:56:02.930Z,3.40
2022-12-18T03:57:10.785Z,4.18
2022-12-18T03:58:18.389Z,3.22
2022-12-18T03:59:23.353Z,3.03
2022-12-18T04:00:26.782Z,3.22
2022-12-18T04:01:33.831Z,2.97
2022-12-18T04:02:41.131Z,3.20
2022-12-18T04:03:45.991Z,3.00
2022-12-18T04:04:53.427Z,2.95
2022-12-18T04:05:57.083Z,3.30
2022-12-18T04:07:01.611Z,3.45
2022-12-18T04:08:04.639Z,3.40
2022-12-18T04:09:08.484Z,3.47
2022-12-18T04:10:13.028Z,3.92
2022-12-18T04:11:17.950Z,3.88
2022-12-18T04:12:20.197Z,3.90
2022-12-18T04:13:29.568Z,3.50
2022-12-18T04:14:36.772Z,3.35
2022-12-18T04:15:41.666Z,3.90
2022-12-18T04:16:44.152Z,3.67
2022-12-18T04:17:50.976Z,4.40
2022-12-18T04:18:53.586Z,4.10
2022-12-18T04:19:56.963Z,4.07
2022-12-18T04:20:59.593Z,4.22
2022-12-18T04:22:03.138Z,3.80
2022-12-18T04:23:05.704Z,4.20
2022-12-18T04:24:09.438Z,3.60
2022-12-18T04:25:11.909Z,4.43
2022-12-18T04:26:15.288Z,3.65
2022-12-18T04:27:17.638Z,4.57
2022-12-18T04:28:21.127Z,4.40
2022-12-18T04:29:24.025Z,3.72
2022-12-18T04:30:29.162Z,4.50
2022-12-18T04:31:31.541Z,4.18
2022-12-18T04:32:35.864Z,3.30
2022-12-18T04:33:38.413Z,4.25
2022-12-18T04:34:41.887Z,3.90
2022-12-18T04:35:44.353Z,4.00
2022-12-18T04:36:47.905Z,4.05
2022-12-18T04:37:50.271Z,4.20
2022-12-18T04:38:53.875Z,3.70
2022-12-18T04:39:56.556Z,3.58
2022-12-18T04:41:00.159Z,3.97
2022-12-18T04:42:02.319Z,3.78
2022-12-18T04:43:06.557Z,3.50
2022-12-18T04:44:09.228Z,3.63
2022-12-18T04:45:12.743Z,3.53
2022-12-18T04:46:16.313Z,3.20
2022-12-18T04:47:20.197Z,3.25
2022-12-18T04:48:22.509Z,3.33
2022-12-18T04:49:25.967Z,3.67
2022-12-18T04:50:28.815Z,3.55
2022-12-18T04:51:32.198Z,4.13
2022-12-18T04:52:34.477Z,5.72
2022-12-18T04:53:38.165Z,5.97
2022-12-18T04:54:40.984Z,4.97
2022-12-18T04:55:44.413Z,6.70
2022-12-18T04:56:46.879Z,7.75
2022-12-18T04:57:50.258Z,6.88
2022-12-18T04:58:52.607Z,7.07
2022-12-18T04:59:55.956Z,6.10
2022-12-18T05:00:58.444Z,6.90
2022-12-18T05:02:03.529Z,6.10
2022-12-18T05:03:05.990Z,5.07
2022-12-18T05:04:09.495Z,5.55
2022-12-18T05:05:11.932Z,4.32
2022-12-18T05:06:15.307Z,4.22
2022-12-18T05:07:17.652Z,4.00
2022-12-18T05:08:21.451Z,3.72
2022-12-18T05:09:25.000Z,4.33
2022-12-18T05:10:29.628Z,3.75
2022-12-18T05:11:34.535Z,3.45
2022-12-18T05:12:59.346Z,3.40
2022-12-18T05:14:03.594Z,3.67
2022-12-18T05:15:08.019Z,3.13
2022-12-18T05:16:10.671Z,3.15
2022-12-18T05:17:15.519Z,3.00
2022-12-18T05:18:17.886Z,3.00
2022-12-18T05:19:21.287Z,2.95
2022-12-18T05:20:23.811Z,3.27
2022-12-18T05:21:27.169Z,3.30
2022-12-18T05:22:29.429Z,2.97
2022-12-18T05:23:32.679Z,3.63
2022-12-18T05:24:34.968Z,3.50
2022-12-18T05:25:38.319Z,3.38
2022-12-18T05:26:40.997Z,4.00
2022-12-18T05:27:44.978Z,3.33
2022-12-18T05:28:47.391Z,3.50
2022-12-18T05:29:50.860Z,3.92
2022-12-18T05:30:54.567Z,3.67
2022-12-18T05:31:58.106Z,3.63
2022-12-18T05:33:01.839Z,4.00
2022-12-18T05:34:05.117Z,3.83
2022-12-18T05:35:09.618Z,3.70
2022-12-18T05:36:13.294Z,3.88
2022-12-18T05:37:15.709Z,4.28
2022-12-18T05:38:19.165Z,4.05
2022-12-18T05:39:21.512Z,4.32
2022-12-18T05:40:24.763Z,4.28
2022-12-18T05:41:27.065Z,4.20
2022-12-18T05:42:30.368Z,4.22
2022-12-18T05:43:35.186Z,4.22
2022-12-18T05:44:38.391Z,4.82
2022-12-18T05:45:41.882Z,4.40
2022-12-18T05:46:45.283Z,4.35
2022-12-18T05:47:47.572Z,5.15
2022-12-18T05:48:52.683Z,4.68
2022-12-18T05:49:55.625Z,4.07
2022-12-18T05:51:06.793Z,4.47
2022-12-18T05:52:09.238Z,4.53
2022-12-18T05:53:12.471Z,4.57
2022-12-18T05:54:15.089Z,4.20
2022-12-18T05:55:18.429Z,4.47
2022-12-18T05:56:23.094Z,4.10
2022-12-18T05:57:26.426Z,4.50
2022-12-18T05:58:29.189Z,4.25
2022-12-18T05:59:32.571Z,4.07
2022-12-18T06:00:37.147Z,3.90
2022-12-18T06:01:40.594Z,3.92
2022-12-18T06:02:42.901Z,4.63
2022-12-18T06:03:46.764Z,4.43
2022-12-18T06:04:50.916Z,3.67
2022-12-18T06:05:54.158Z,4.47
2022-12-18T06:06:56.390Z,3.80
2022-12-18T06:08:00.298Z,4.25
2022-12-18T06:09:02.864Z,3.88
2022-12-18T06:10:07.529Z,4.57
2022-12-18T06:11:09.754Z,4.05
2022-12-18T06:12:13.412Z,3.92
2022-12-18T06:13:15.901Z,3.70
2022-12-18T06:14:19.294Z,3.35
2022-12-18T06:15:21.606Z,4.28
2022-12-18T06:16:25.466Z,3.30
2022-12-18T06:17:30.204Z,3.85
2022-12-18T06:18:33.628Z,3.95
2022-12-18T06:19:36.131Z,3.95
2022-12-18T06:20:42.446Z,4.20
2022-12-18T06:21:44.992Z,4.15
2022-12-18T06:22:48.332Z,3.10
2022-12-18T06:23:51.140Z,3.80
2022-12-18T06:24:54.444Z,3.63
2022-12-18T06:25:57.554Z,4.30
2022-12-18T06:27:01.015Z,3.55
2022-12-18T06:28:03.464Z,4.13
2022-12-18T06:29:07.034Z,3.63
2022-12-18T06:30:11.726Z,3.20
2022-12-18T06:31:15.160Z,4.00
2022-12-18T06:32:17.827Z,3.95
2022-12-18T06:33:21.066Z,4.00
2022-12-18T06:34:23.655Z,3.97
2022-12-18T06:35:27.062Z,4.10
2022-12-18T06:36:30.667Z,3.97
2022-12-18T06:37:34.191Z,3.70
2022-12-18T06:38:38.776Z,4.35
2022-12-18T06:39:42.270Z,3.67
2022-12-18T06:40:44.415Z,3.78
2022-12-18T06:41:48.176Z,3.67
2022-12-18T06:42:50.506Z,3.58
2022-12-18T06:43:59.327Z,3.28
2022-12-18T06:45:02.113Z,3.53
2022-12-18T06:46:07.459Z,3.25
2022-12-18T06:47:10.165Z,3.40
2022-12-18T06:48:13.520Z,3.97
2022-12-18T06:49:17.056Z,3.08
2022-12-18T06:50:20.419Z,3.15
2022-12-18T06:51:24.747Z,3.65
2022-12-18T06:52:29.537Z,3.30
2022-12-18T06:53:33.256Z,3.90
2022-12-18T06:54:36.796Z,3.15
2022-12-18T06:55:39.071Z,3.43
2022-12-18T06:56:42.716Z,3.72
2022-12-18T06:57:45.049Z,3.33
2022-12-18T06:58:48.338Z,3.10
2022-12-18T06:59:51.053Z,3.95
2022-12-18T07:00:54.469Z,3.90
2022-12-18T07:01:57.875Z,3.78
2022-12-18T07:03:01.393Z,3.92
2022-12-18T07:04:03.716Z,4.20
2022-12-18T07:05:10.963Z,3.90
2022-12-18T07:06:16.485Z,3.10
2022-12-18T07:07:20.393Z,2.97
2022-12-18T07:08:24.278Z,3.08
2022-12-18T07:09:29.984Z,3.50
2022-12-18T07:10:32.237Z,2.90
2022-12-18T07:11:36.095Z,2.90
2022-12-18T07:12:38.485Z,3.40
2022-12-18T07:13:42.033Z,2.90
2022-12-18T07:14:44.702Z,3.28
2022-12-18T07:15:48.086Z,2.92
2022-12-18T07:16:51.567Z,2.90
2022-12-18T07:17:54.401Z,2.65
2022-12-18T07:18:58.375Z,2.80
2022-12-18T07:20:00.611Z,2.35
2022-12-18T07:21:07.523Z,2.58
2022-12-18T07:22:09.752Z,2.45
2022-12-18T07:23:13.061Z,2.90
2022-12-18T07:24:16.864Z,2.28
2022-12-18T07:25:20.460Z,2.60
2022-12-18T07:26:23.463Z,2.55
2022-12-18T07:27:27.227Z,2.57
2022-12-18T07:28:30.490Z,2.50
2022-12-18T07:29:33.988Z,2.63
2022-12-18T07:30:39.593Z,2.70
2022-12-18T07:31:41.949Z,2.28
2022-12-18T07:32:45.277Z,2.30
2022-12-18T07:33:48.096Z,2.40
2022-12-18T07:34:51.440Z,2.47
2022-12-18T07:35:53.862Z,2.60
2022-12-18T07:36:57.175Z,2.65
2022-12-18T07:37:59.304Z,2.10
2022-12-18T07:39:02.717Z,2.60
2022-12-18T07:40:07.965Z,2.55
2022-12-18T07:41:13.986Z,2.42
2022-12-18T07:42:34.421Z,2.67
2022-12-18T07:43:38.612Z,2.50
2022-12-18T07:44:42.235Z,2.85
2022-12-18T07:45:45.077Z,2.40
2022-12-18T07:46:48.290Z,2.47
2022-12-18T07:47:51.119Z,2.35
2022-12-18T07:48:54.562Z,2.73
2022-12-18T07:49:56.961Z,2.47
2022-12-18T07:51:01.232Z,2.53
2022-12-18T07:52:03.615Z,2.80
2022-12-18T07:53:07.163Z,2.63
2022-12-18T07:54:09.523Z,2.40
2022-12-18T07:55:14.555Z,3.10
2022-12-18T07:56:32.395Z,2.50
2022-12-18T07:57:50.401Z,2.90
2022-12-18T07:58:54.809Z,2.40
2022-12-18T07:59:58.172Z,2.47
2022-12-18T08:01:04.707Z,2.78
2022-12-18T08:02:09.980Z,2.58
2022-12-18T08:03:13.777Z,2.83
2022-12-18T08:04:17.216Z,3.08
2022-12-18T08:05:19.435Z,2.60
2022-12-18T08:06:24.081Z,2.83
2022-12-18T08:07:26.977Z,2.70
2022-12-18T08:08:30.541Z,3.03
2022-12-18T08:09:32.914Z,3.42
2022-12-18T08:10:37.641Z,3.33
2022-12-18T08:11:41.307Z,3.13
2022-12-18T08:12:43.593Z,3.10
2022-12-18T08:13:46.876Z,2.60
2022-12-18T08:14:49.096Z,3.47
2022-12-18T08:15:59.172Z,2.65
2022-12-18T08:17:02.645Z,3.10
2022-12-18T08:18:06.523Z,3.10
2022-12-18T08:19:12.812Z,3.40
2022-12-18T08:20:16.069Z,3.38
2022-12-18T08:21:22.362Z,2.90
2022-12-18T08:22:26.552Z,2.50
2022-12-18T08:23:29.018Z,2.80
2022-12-18T08:24:32.358Z,3.55
2022-12-18T08:25:36.972Z,3.97
2022-12-18T08:26:40.224Z,4.57
2022-12-18T08:28:41.552Z,4.95
2022-12-18T08:29:44.917Z,3.85
2022-12-18T08:30:47.171Z,4.00
2022-12-18T08:31:50.572Z,4.50
2022-12-18T08:32:54.107Z,4.87
2022-12-18T08:33:57.720Z,5.07
2022-12-18T08:35:00.157Z,5.38
2022-12-18T08:36:04.933Z,4.93
2022-12-18T08:37:08.522Z,5.82
2022-12-18T08:38:10.981Z,4.40
2022-12-18T08:39:14.879Z,4.95
2022-12-18T08:40:17.457Z,4.32
2022-12-18T08:41:22.839Z,4.63
2022-12-18T08:42:43.840Z,4.20
2022-12-18T08:44:05.115Z,4.20
2022-12-18T08:45:09.713Z,4.68
2022-12-18T08:46:12.382Z,4.57
2022-12-18T08:47:15.840Z,4.32
2022-12-18T08:48:22.205Z,4.00
2022-12-18T08:49:25.756Z,3.90
2022-12-18T08:50:28.067Z,4.85
2022-12-18T08:51:31.644Z,5.10
2022-12-18T08:52:35.294Z,4.97
2022-12-18T08:53:37.852Z,4.80
2022-12-18T08:54:41.511Z,5.13
2022-12-18T08:55:49.957Z,4.70
2022-12-18T08:56:55.083Z,5.72
2022-12-18T08:57:57.232Z,5.72
2022-12-18T08:59:00.716Z,4.53
2022-12-18T09:00:04.721Z,4.60
2022-12-18T09:01:10.443Z,4.18
2022-12-18T09:02:14.133Z,4.00
2022-12-18T09:03:18.347Z,4.20
2022-12-18T09:04:21.943Z,3.70
2022-12-18T09:05:25.770Z,3.93
2022-12-18T09:06:28.041Z,4.15
2022-12-18T09:07:31.405Z,4.55
2022-12-18T09:08:33.603Z,4.43
2022-12-18T09:09:38.421Z,4.47
2022-12-18T09:10:43.681Z,3.78
2022-12-18T09:11:47.306Z,4.40
2022-12-18T09:12:51.298Z,4.05
2022-12-18T09:13:56.139Z,4.18
2022-12-18T09:14:58.595Z,4.63
2022-12-18T09:16:01.939Z,4.00
2022-12-18T09:17:04.426Z,4.32
2022-12-18T09:18:08.320Z,3.85
2022-12-18T09:19:12.390Z,4.40
2022-12-18T09:20:15.943Z,4.43
2022-12-18T09:21:21.430Z,4.53
2022-12-18T09:22:24.862Z,4.57
2022-12-18T09:23:27.085Z,4.43
2022-12-18T09:24:30.253Z,4.72
2022-12-18T09:25:34.261Z,4.50
2022-12-18T09:26:37.745Z,4.87
2022-12-18T09:27:42.130Z,4.55
2022-12-18T09:28:46.029Z,4.57
2022-12-18T09:29:49.313Z,4.25
2022-12-18T09:30:51.578Z,4.10
2022-12-18T09:31:54.991Z,4.45
2022-12-18T09:32:57.452Z,4.57
2022-12-18T09:34:00.817Z,4.80
2022-12-18T09:35:04.254Z,4.45
2022-12-18T09:36:09.271Z,3.83
2022-12-18T09:37:12.737Z,3.97
2022-12-18T09:38:16.718Z,4.30
2022-12-18T09:39:23.449Z,4.85
2022-12-18T09:40:30.370Z,4.30
2022-12-18T09:41:45.095Z,4.28
2022-12-18T09:42:53.224Z,4.22
2022-12-18T09:44:02.006Z,4.70
2022-12-18T09:45:06.506Z,4.25
2022-12-18T09:46:13.538Z,4.40
2022-12-18T09:47:21.933Z,4.40
2022-12-18T09:48:29.505Z,4.13
2022-12-18T09:49:37.262Z,4.35
2022-12-18T09:50:42.838Z,4.95
2022-12-18T09:51:49.429Z,4.25
2022-12-18T09:52:58.948Z,4.40
2022-12-18T09:54:05.974Z,4.38
2022-12-18T09:55:26.656Z,4.45
2022-12-18T09:56:33.137Z,4.10
2022-12-18T09:57:41.720Z,4.40
2022-12-18T09:58:51.431Z,4.40
2022-12-18T10:00:00.010Z,4.23
2022-12-18T10:01:03.755Z,4.00
2022-12-18T10:02:22.479Z,4.05
2022-12-18T10:03:26.000Z,3.70
2022-12-18T10:04:31.346Z,4.50
2022-12-18T10:05:42.505Z,3.70
2022-12-18T10:06:50.971Z,3.97
2022-12-18T10:08:04.679Z,4.32
2022-12-18T10:09:15.089Z,4.80
2022-12-18T10:10:28.204Z,4.10
2022-12-18T10:11:42.190Z,4.20
2022-12-18T10:13:00.934Z,4.22
2022-12-18T10:14:17.786Z,4.38
2022-12-18T10:15:32.720Z,3.72
2022-12-18T10:16:43.870Z,4.32
2022-12-18T10:17:54.082Z,4.25
2022-12-18T10:19:20.559Z,4.55
2022-12-18T10:20:31.008Z,4.30
2022-12-18T10:21:41.648Z,4.22
2022-12-18T10:22:55.477Z,4.07
2022-12-18T10:24:07.075Z,4.33
2022-12-18T10:25:21.599Z,3.83
2022-12-18T10:26:25.023Z,4.80
2022-12-18T10:27:29.355Z,4.25
2022-12-18T10:28:34.959Z,4.25
2022-12-18T10:29:37.557Z,4.75
2022-12-18T10:30:43.681Z,4.40
2022-12-18T10:31:46.040Z,4.28
2022-12-18T10:32:49.335Z,4.50
2022-12-18T10:33:51.666Z,4.45
2022-12-18T10:35:00.507Z,4.50
2022-12-18T10:36:04.509Z,4.22
2022-12-18T10:37:14.024Z,4.07
2022-12-18T10:38:26.174Z,3.83
2022-12-18T10:39:28.331Z,4.35
2022-12-18T10:40:32.665Z,4.10
2022-12-18T10:41:34.947Z,3.83
2022-12-18T10:42:38.437Z,4.10
2022-12-18T10:43:42.826Z,3.92
2022-12-18T10:44:45.343Z,4.30
2022-12-18T10:46:02.868Z,4.30
2022-12-18T10:47:12.900Z,4.32
2022-12-18T10:48:23.450Z,4.68
2022-12-18T10:49:29.690Z,5.00
2022-12-18T10:51:09.308Z,3.88
2022-12-18T10:52:16.655Z,4.20
2022-12-18T10:53:22.877Z,4.35
2022-12-18T10:54:27.543Z,4.05
2022-12-18T10:55:35.091Z,5.10
2022-12-18T10:56:40.285Z,5.50
2022-12-18T10:57:44.598Z,5.03
2022-12-18T10:58:58.620Z,4.90
2022-12-18T11:00:22.526Z,5.25
2022-12-18T11:01:28.064Z,5.10
2022-12-18T11:02:38.099Z,5.90
2022-12-18T11:03:43.815Z,5.10
2022-12-18T11:04:53.301Z,5.78
2022-12-18T11:06:05.446Z,4.63
2022-12-18T11:07:11.905Z,5.22
2022-12-18T11:08:23.791Z,5.00
2022-12-18T11:09:28.922Z,5.10
2022-12-18T11:10:33.906Z,5.45
2022-12-18T11:11:37.335Z,5.38
2022-12-18T11:12:39.543Z,5.53
2022-12-18T11:13:43.344Z,5.55
2022-12-18T11:14:49.190Z,5.13
2022-12-18T11:15:53.208Z,5.20
2022-12-18T11:18:29.165Z,5.82
2022-12-18T11:19:36.414Z,5.63
2022-12-18T11:20:41.603Z,5.20
2022-12-18T11:21:44.230Z,6.00
2022-12-18T11:22:58.227Z,5.57
2022-12-18T11:24:01.455Z,5.75
2022-12-18T11:25:32.572Z,5.38
2022-12-18T11:26:37.349Z,5.03
2022-12-18T11:27:40.592Z,4.75
2022-12-18T11:28:48.874Z,5.03
2022-12-18T11:29:53.269Z,6.15
2022-12-18T11:31:17.987Z,5.50
2022-12-18T11:32:36.413Z,6.00
2022-12-18T11:33:58.362Z,5.30
2022-12-18T11:35:19.492Z,5.93
2022-12-18T11:36:24.888Z,5.00
2022-12-18T11:37:30.039Z,5.35
2022-12-18T11:38:37.568Z,5.53
2022-12-18T11:39:44.005Z,5.90
2022-12-18T11:40:54.180Z,5.72
2022-12-18T11:42:10.393Z,6.13
2022-12-18T11:43:19.432Z,5.10
2022-12-18T11:44:27.689Z,5.80
2022-12-18T11:45:33.382Z,5.60
2022-12-18T11:46:39.642Z,5.22
2022-12-18T11:47:52.108Z,5.82
2022-12-18T11:49:02.454Z,6.07
2022-12-18T11:50:16.522Z,5.30
2022-12-18T11:51:30.488Z,5.75
2022-12-18T11:52:40.067Z,5.63
2022-12-18T11:53:43.509Z,5.82
2022-12-18T11:54:45.787Z,5.70
2022-12-18T11:56:07.219Z,5.70
2022-12-18T11:57:19.840Z,5.80
2022-12-18T11:58:35.530Z,6.00
2022-12-18T11:59:49.640Z,6.13
2022-12-18T12:01:05.679Z,6.55
2022-12-18T12:02:33.330Z,6.60
2022-12-18T12:04:00.290Z,7.40
2022-12-18T12:05:18.609Z,6.82
2022-12-18T12:06:29.408Z,7.00
2022-12-18T12:07:44.261Z,7.17
2022-12-18T12:09:03.844Z,7.17
2022-12-18T12:10:20.942Z,6.90
2022-12-18T12:11:35.735Z,6.80
2022-12-18T12:12:54.831Z,8.05
2022-12-18T12:14:11.415Z,6.95
2022-12-18T12:15:25.385Z,7.35
2022-12-18T12:16:35.793Z,7.35
2022-12-18T12:17:44.062Z,7.20
2022-12-18T12:19:09.190Z,6.75
2022-12-18T12:20:22.646Z,6.63
2022-12-18T12:21:37.044Z,7.27
2022-12-18T12:22:51.967Z,6.93
2022-12-18T12:24:01.748Z,7.00
2022-12-18T12:25:22.568Z,6.88
2022-12-18T12:26:33.961Z,7.25
2022-12-18T12:27:46.824Z,7.10
2022-12-18T12:29:10.657Z,7.45
2022-12-18T12:30:20.266Z,7.50
2022-12-18T12:31:36.161Z,7.57
2022-12-18T12:33:01.925Z,6.85
2022-12-18T12:34:18.997Z,6.70
2022-12-18T12:35:34.658Z,7.57
2022-12-18T12:37:04.013Z,7.25
2022-12-18T12:38:12.418Z,7.18
2022-12-18T12:39:20.291Z,7.60
2022-12-18T12:42:18.799Z,7.10
2022-12-18T12:43:33.521Z,6.90
2022-12-18T12:44:43.068Z,6.75
2022-12-18T12:45:51.661Z,7.07
2022-12-18T12:46:58.684Z,7.70
2022-12-18T12:48:03.706Z,6.68
2022-12-18T12:49:15.725Z,6.78
2022-12-18T12:50:21.528Z,7.45
2022-12-18T12:51:29.453Z,7.05
2022-12-18T12:52:37.135Z,7.05
2022-12-18T12:53:42.746Z,6.88
2022-12-18T12:54:47.496Z,7.07
2022-12-18T12:55:50.239Z,7.07
2022-12-18T12:57:00.128Z,7.10
2022-12-18T12:58:11.695Z,6.93
2022-12-18T12:59:22.163Z,7.50
2022-12-18T13:00:26.802Z,7.40
2022-12-18T13:01:38.380Z,6.45
2022-12-18T13:02:49.695Z,7.13
2022-12-18T13:04:02.545Z,6.97
2022-12-18T13:05:19.096Z,7.63
2022-12-18T13:06:36.927Z,7.28
2022-12-18T13:07:47.677Z,7.20
2022-12-18T13:08:57.765Z,6.82
2022-12-18T13:10:17.884Z,6.90
2022-12-18T13:11:54.929Z,7.00
2022-12-18T13:13:04.210Z,7.82
2022-12-18T13:14:25.199Z,7.05
2022-12-18T13:15:35.867Z,9.98
2022-12-18T13:16:41.481Z,8.23
2022-12-18T13:17:45.294Z,8.73
2022-12-18T13:18:52.933Z,7.03
2022-12-18T13:20:11.735Z,7.78
2022-12-18T13:21:24.604Z,6.13
2022-12-18T13:22:34.901Z,6.07
2022-12-18T13:23:39.593Z,6.15
2022-12-18T13:24:42.052Z,6.15
2022-12-18T13:25:45.696Z,5.72
2022-12-18T13:26:47.948Z,5.65
2022-12-18T13:28:02.918Z,4.88
2022-12-18T13:29:07.315Z,5.15
2022-12-18T13:30:46.400Z,5.93
2022-12-18T13:32:22.900Z,5.80
2022-12-18T13:35:41.669Z,4.67
2022-12-18T13:36:45.532Z,4.10
2022-12-18T13:37:54.091Z,4.28
2022-12-18T13:39:32.788Z,4.75
2022-12-18T13:40:57.465Z,4.25
2022-12-18T13:42:57.923Z,4.60
2022-12-18T13:44:14.497Z,3.85
2022-12-18T13:45:47.559Z,5.03
2022-12-18T13:46:53.417Z,4.05
2022-12-18T13:47:55.976Z,5.05
2022-12-18T13:49:03.640Z,3.90
2022-12-18T13:50:22.199Z,3.92
2022-12-18T13:51:28.428Z,4.53
2022-12-18T13:52:38.501Z,4.43
2022-12-18T13:53:46.798Z,5.50
2022-12-18T13:54:53.795Z,4.90
2022-12-18T13:55:56.775Z,4.97
2022-12-18T13:57:00.035Z,4.53
2022-12-18T13:58:05.911Z,5.35
2022-12-18T13:59:22.981Z,5.10
2022-12-18T14:00:29.778Z,5.10
2022-12-18T14:01:33.175Z,5.10
2022-12-18T14:02:36.950Z,5.63
2022-12-18T14:03:40.698Z,5.78
2022-12-18T14:04:48.888Z,6.10
2022-12-18T14:06:00.685Z,5.95
2022-12-18T14:07:08.090Z,5.50
2022-12-18T14:08:14.071Z,6.40
2022-12-18T14:09:21.469Z,6.07
2022-12-18T14:10:47.794Z,5.10
2022-12-18T14:11:50.580Z,5.70
2022-12-18T14:12:57.929Z,6.00
2022-12-18T14:14:08.338Z,5.30
2022-12-18T14:15:23.357Z,5.97
2022-12-18T14:16:27.366Z,5.55
2022-12-18T14:17:30.705Z,6.07
2022-12-18T14:18:41.435Z,5.55
2022-12-18T14:19:46.020Z,6.47
2022-12-18T14:20:52.831Z,6.40
2022-12-18T14:21:55.682Z,6.05
2022-12-18T14:23:01.244Z,6.40
2022-12-18T14:24:15.823Z,5.93
2022-12-18T14:25:25.430Z,5.63
2022-12-18T14:26:30.953Z,7.28
2022-12-18T14:27:33.341Z,6.22
2022-12-18T14:28:46.197Z,6.57
2022-12-18T14:29:49.381Z,7.07
2022-12-18T14:30:52.131Z,7.50
2022-12-18T14:32:17.573Z,8.43
2022-12-18T14:33:23.353Z,7.05
2022-12-18T14:34:28.971Z,8.43
2022-12-18T14:35:31.270Z,6.43
2022-12-18T14:36:34.562Z,8.55
2022-12-18T14:37:37.893Z,8.38
2022-12-18T14:38:42.905Z,8.75
2022-12-18T14:39:57.773Z,9.05
2022-12-18T14:41:02.789Z,9.50
2022-12-18T14:42:06.536Z,8.50
2022-12-18T14:43:10.838Z,8.63
2022-12-18T14:44:15.779Z,8.45
2022-12-18T14:45:42.154Z,9.00
2022-12-18T14:46:48.402Z,8.63
2022-12-18T14:47:50.953Z,8.77
2022-12-18T14:48:55.054Z,9.15
2022-12-18T14:49:57.402Z,8.68
2022-12-18T14:51:03.750Z,9.50
2022-12-18T14:52:08.933Z,9.32
2022-12-18T14:53:24.644Z,8.63
2022-12-18T14:54:31.322Z,9.82
2022-12-18T14:55:33.985Z,9.40